PWSweather.com
Personal Weather Stations
Station Observations
OINOFYTA
Oinofyta Greece, OinofytaGR 320 11

Oinofyta GreeceOinofytaGR 320 11

Lat: 38.3080648, Lon: 23.6391172

Elevation: 354

Station Type: ProWeatherStation 1080

http://oinofytaweather.gr/

Latest ConditionsUpdated 3:55:00 AM GMT+02:02 Wednesday, Aug 21, 2019
Currently Today's Max Today's Min Today's Average
Temperature 67.1°F19.5°C 69.3°F20.7°C 65.7°F18.7°C 67.4°F19.7°C
Dew Point 56.6°F13.7°C 56.6°F13.7°C 52.2°F11.2°C 53.6°F12.0°C
Winds 2.2 mph SW3.5 kmh SW 3.3 mph -5.3 kmh - - 0.9 mph 1.4 kmh
Wind Gusts 6.9 mph11.1 kmh 6.9 mph11.1 kmh - -
Humidity 69% 69% 56% 61%
Pressure 30.10 in1019.3 mb 30.12 in1020.0 mb 30.10 in1019.3 mb -
Hour Temp Dew Point Humidity Winds Wind Gusts Pressure Precip Precip Rate Daily Precip Total
03:55 AM 67.1°F19.5°C 56.6°F13.7°C 69% 2.2 mph SW3.5 kmh SW 6.9 mph11.1 kmh 30.10 in1019.3 mb 0.00 in0.0 mm 0.00 in0.0 mm 0.00 in0.0 mm
03:50 AM 66.2°F19.0°C 54.9°F12.7°C 67% 0.4 mph WSW0.6 kmh WSW 3.8 mph6.1 kmh 30.10 in1019.3 mb 0.00 in0.0 mm 0.00 in0.0 mm 0.00 in0.0 mm
03:45 AM 66.0°F18.9°C 53.9°F12.2°C 65% 0.3 mph NW0.5 kmh NW 1.6 mph2.6 kmh 30.10 in1019.3 mb 0.00 in0.0 mm 0.00 in0.0 mm 0.00 in0.0 mm
03:40 AM 66.2°F19.0°C 53.7°F12.1°C 64% 0.4 mph NE0.6 kmh NE 2.2 mph3.5 kmh 30.10 in1019.3 mb 0.00 in0.0 mm 0.00 in0.0 mm 0.00 in0.0 mm
03:35 AM 66.4°F19.1°C 53.9°F12.2°C 64% 0.2 mph E0.3 kmh E 2.2 mph3.5 kmh 30.11 in1019.6 mb 0.00 in0.0 mm 0.00 in0.0 mm 0.00 in0.0 mm
03:30 AM 66.2°F19.0°C 54.1°F12.3°C 65% Calm Calm 0.7 mph1.1 kmh 30.11 in1019.6 mb 0.00 in0.0 mm 0.00 in0.0 mm 0.00 in0.0 mm
03:25 AM 66.0°F18.9°C 53.9°F12.2°C 65% 0.1 mph NW0.2 kmh NW 1.6 mph2.6 kmh 30.10 in1019.3 mb 0.00 in0.0 mm 0.00 in0.0 mm 0.00 in0.0 mm
03:20 AM 65.8°F18.8°C 53.3°F11.8°C 64% 0.1 mph NW0.2 kmh NW 1.6 mph2.6 kmh 30.10 in1019.3 mb 0.00 in0.0 mm 0.00 in0.0 mm 0.00 in0.0 mm
03:15 AM 66.0°F18.9°C 53.5°F11.9°C 64% Calm Calm 0.7 mph1.1 kmh 30.10 in1019.3 mb 0.00 in0.0 mm 0.00 in0.0 mm 0.00 in0.0 mm
03:10 AM 66.0°F18.9°C 53.9°F12.2°C 65% Calm Calm 0.7 mph1.1 kmh 30.10 in1019.3 mb 0.00 in0.0 mm 0.00 in0.0 mm 0.00 in0.0 mm
03:05 AM 65.7°F18.7°C 53.6°F12.0°C 65% 0.2 mph NE0.3 kmh NE 2.2 mph3.5 kmh 30.10 in1019.3 mb 0.00 in0.0 mm 0.00 in0.0 mm 0.00 in0.0 mm
03:00 AM 65.8°F18.8°C 53.3°F11.8°C 64% 0.3 mph NE0.5 kmh NE 2.2 mph3.5 kmh 30.10 in1019.3 mb 0.00 in0.0 mm 0.00 in0.0 mm 0.00 in0.0 mm
02:55 AM 66.0°F18.9°C 53.5°F11.9°C 64% 0.1 mph N0.2 kmh N 2.2 mph3.5 kmh 30.10 in1019.3 mb 0.00 in0.0 mm 0.00 in0.0 mm 0.00 in0.0 mm
02:50 AM 66.0°F18.9°C 53.5°F11.9°C 64% Calm Calm 0.7 mph1.1 kmh 30.10 in1019.3 mb 0.00 in0.0 mm 0.00 in0.0 mm 0.00 in0.0 mm
02:45 AM 66.2°F19.0°C 53.7°F12.1°C 64% 0.6 mph SE1.0 kmh SE 3.1 mph5.0 kmh 30.10 in1019.3 mb 0.00 in0.0 mm 0.00 in0.0 mm 0.00 in0.0 mm
02:40 AM 66.2°F19.0°C 53.3°F11.8°C 63% 0.7 mph SE1.1 kmh SE 3.1 mph5.0 kmh 30.10 in1019.3 mb 0.00 in0.0 mm 0.00 in0.0 mm 0.00 in0.0 mm
02:35 AM 66.0°F18.9°C 53.5°F11.9°C 64% 0.3 mph NE0.5 kmh NE 2.2 mph3.5 kmh 30.10 in1019.3 mb 0.00 in0.0 mm 0.00 in0.0 mm 0.00 in0.0 mm
02:30 AM 65.8°F18.8°C 53.3°F11.8°C 64% 0.3 mph N0.5 kmh N 1.6 mph2.6 kmh 30.10 in1019.3 mb 0.00 in0.0 mm 0.00 in0.0 mm 0.00 in0.0 mm
02:25 AM 65.7°F18.7°C 53.2°F11.8°C 64% 0.2 mph N0.3 kmh N 2.2 mph3.5 kmh 30.10 in1019.3 mb 0.00 in0.0 mm 0.00 in0.0 mm 0.00 in0.0 mm
02:20 AM 65.7°F18.7°C 52.7°F11.5°C 63% 0.3 mph NNE0.5 kmh NNE 2.2 mph3.5 kmh 30.10 in1019.3 mb 0.00 in0.0 mm 0.00 in0.0 mm 0.00 in0.0 mm
02:15 AM 66.0°F18.9°C 52.6°F11.4°C 62% 0.3 mph E0.5 kmh E 1.6 mph2.6 kmh 30.10 in1019.3 mb 0.00 in0.0 mm 0.00 in0.0 mm 0.00 in0.0 mm
02:10 AM 66.9°F19.4°C 53.5°F11.9°C 62% 0.5 mph ESE0.8 kmh ESE 2.2 mph3.5 kmh 30.11 in1019.6 mb 0.00 in0.0 mm 0.00 in0.0 mm 0.00 in0.0 mm
02:05 AM 67.1°F19.5°C 53.7°F12.1°C 62% 0.6 mph ESE1.0 kmh ESE 3.1 mph5.0 kmh 30.10 in1019.3 mb 0.00 in0.0 mm 0.00 in0.0 mm 0.00 in0.0 mm
02:00 AM 67.6°F19.8°C 53.7°F12.1°C 61% 0.5 mph SSE0.8 kmh SSE 3.1 mph5.0 kmh 30.11 in1019.6 mb 0.00 in0.0 mm 0.00 in0.0 mm 0.00 in0.0 mm
01:55 AM 68.0°F20.0°C 55.0°F12.8°C 63% 0.3 mph SW0.5 kmh SW 3.1 mph5.0 kmh 30.11 in1019.6 mb 0.00 in0.0 mm 0.00 in0.0 mm 0.00 in0.0 mm
01:50 AM 68.0°F20.0°C 54.5°F12.5°C 62% 1.1 mph SW1.8 kmh SW 4.5 mph7.2 kmh 30.11 in1019.6 mb 0.00 in0.0 mm 0.00 in0.0 mm 0.00 in0.0 mm
01:45 AM 68.0°F20.0°C 54.1°F12.3°C 61% 2.5 mph SW4.0 kmh SW 5.4 mph8.7 kmh 30.11 in1019.6 mb 0.00 in0.0 mm 0.00 in0.0 mm 0.00 in0.0 mm
01:40 AM 68.4°F20.2°C 54.0°F12.2°C 60% 3.3 mph SW5.3 kmh SW 5.4 mph8.7 kmh 30.11 in1019.6 mb 0.00 in0.0 mm 0.00 in0.0 mm 0.00 in0.0 mm
01:35 AM 68.5°F20.3°C 54.1°F12.3°C 60% 2.8 mph SW4.5 kmh SW 5.4 mph8.7 kmh 30.11 in1019.6 mb 0.00 in0.0 mm 0.00 in0.0 mm 0.00 in0.0 mm
01:30 AM 68.7°F20.4°C 54.3°F12.4°C 60% 2.5 mph SW4.0 kmh SW 5.4 mph8.7 kmh 30.11 in1019.6 mb 0.00 in0.0 mm 0.00 in0.0 mm 0.00 in0.0 mm
01:25 AM 68.7°F20.4°C 54.3°F12.4°C 60% 3.0 mph SW4.8 kmh SW 5.4 mph8.7 kmh 30.11 in1019.6 mb 0.00 in0.0 mm 0.00 in0.0 mm 0.00 in0.0 mm
01:20 AM 68.7°F20.4°C 54.3°F12.4°C 60% 3.2 mph SW5.1 kmh SW 5.4 mph8.7 kmh 30.11 in1019.6 mb 0.00 in0.0 mm 0.00 in0.0 mm 0.00 in0.0 mm
01:15 AM 68.9°F20.5°C 54.5°F12.5°C 60% 2.5 mph SW4.0 kmh SW 5.4 mph8.7 kmh 30.11 in1019.6 mb 0.00 in0.0 mm 0.00 in0.0 mm 0.00 in0.0 mm
01:10 AM 68.9°F20.5°C 54.0°F12.2°C 59% 1.2 mph SW1.9 kmh SW 5.4 mph8.7 kmh 30.12 in1020.0 mb 0.00 in0.0 mm 0.00 in0.0 mm 0.00 in0.0 mm
01:05 AM 68.9°F20.5°C 54.0°F12.2°C 59% 0.5 mph SSW0.8 kmh SSW 3.1 mph5.0 kmh 30.11 in1019.6 mb 0.00 in0.0 mm 0.00 in0.0 mm 0.00 in0.0 mm
01:00 AM 69.1°F20.6°C 53.2°F11.8°C 57% 0.8 mph S1.3 kmh S 5.4 mph8.7 kmh 30.12 in1020.0 mb 0.00 in0.0 mm 0.00 in0.0 mm 0.00 in0.0 mm
12:55 AM 69.3°F20.7°C 53.4°F11.9°C 57% 1.9 mph SW3.1 kmh SW 5.4 mph8.7 kmh 30.12 in1020.0 mb 0.00 in0.0 mm 0.00 in0.0 mm 0.00 in0.0 mm
12:50 AM 69.3°F20.7°C 53.4°F11.9°C 57% 1.9 mph SW3.1 kmh SW 5.4 mph8.7 kmh 30.11 in1019.6 mb 0.00 in0.0 mm 0.00 in0.0 mm 0.00 in0.0 mm
12:45 AM 69.1°F20.6°C 53.7°F12.1°C 58% 1.3 mph WSW2.1 kmh WSW 3.8 mph6.1 kmh 30.12 in1020.0 mb 0.00 in0.0 mm 0.00 in0.0 mm 0.00 in0.0 mm
12:40 AM 68.5°F20.3°C 53.2°F11.8°C 58% 1.4 mph WNW2.3 kmh WNW 3.8 mph6.1 kmh 30.12 in1020.0 mb 0.00 in0.0 mm 0.00 in0.0 mm 0.00 in0.0 mm
12:35 AM 68.9°F20.5°C 52.6°F11.4°C 56% 1.0 mph NNW1.6 kmh NNW 3.8 mph6.1 kmh 30.12 in1020.0 mb 0.00 in0.0 mm 0.00 in0.0 mm 0.00 in0.0 mm
12:30 AM 68.9°F20.5°C 53.1°F11.7°C 57% 0.7 mph W1.1 kmh W 3.8 mph6.1 kmh 30.12 in1020.0 mb 0.00 in0.0 mm 0.00 in0.0 mm 0.00 in0.0 mm
12:25 AM 68.7°F20.4°C 53.4°F11.9°C 58% 0.4 mph WSW0.6 kmh WSW 3.1 mph5.0 kmh 30.12 in1020.0 mb 0.00 in0.0 mm 0.00 in0.0 mm 0.00 in0.0 mm
12:20 AM 68.9°F20.5°C 52.6°F11.4°C 56% 0.1 mph NNW0.2 kmh NNW 2.2 mph3.5 kmh 30.12 in1020.0 mb 0.00 in0.0 mm 0.00 in0.0 mm 0.00 in0.0 mm
12:15 AM 68.5°F20.3°C 52.7°F11.5°C 57% 0.1 mph WSW0.2 kmh WSW 1.6 mph2.6 kmh 30.12 in1020.0 mb 0.00 in0.0 mm 0.00 in0.0 mm 0.00 in0.0 mm
12:10 AM 68.4°F20.2°C 52.6°F11.4°C 57% 0.4 mph SSE0.6 kmh SSE 2.2 mph3.5 kmh 30.12 in1020.0 mb 0.00 in0.0 mm 0.00 in0.0 mm 0.00 in0.0 mm
12:05 AM 68.5°F20.3°C 52.2°F11.2°C 56% 0.3 mph E0.5 kmh E 2.2 mph3.5 kmh 30.12 in1020.0 mb 0.00 in0.0 mm 0.00 in0.0 mm 0.00 in0.0 mm
12:00 AM 68.5°F20.3°C 52.2°F11.2°C 56% 0.4 mph E0.6 kmh E 3.1 mph5.0 kmh 30.12 in1020.0 mb 0.00 in0.0 mm 0.00 in0.0 mm 0.00 in0.0 mm